sensor_id;sensor_type;location;lat;lon;timestamp;P1;durP1;ratioP1;P2;durP2;ratioP2
55292;SDS011;41157;53.560;10.098;2023-07-28T00:01:08;2.15;;;1.95;;
55292;SDS011;41157;53.560;10.098;2023-07-28T00:03:35;1.90;;;1.80;;
55292;SDS011;41157;53.560;10.098;2023-07-28T00:06:02;2.47;;;1.80;;
55292;SDS011;41157;53.560;10.098;2023-07-28T00:08:30;2.10;;;2.00;;
55292;SDS011;41157;53.560;10.098;2023-07-28T00:10:57;2.33;;;2.13;;
55292;SDS011;41157;53.560;10.098;2023-07-28T00:13:24;2.58;;;2.00;;
55292;SDS011;41157;53.560;10.098;2023-07-28T00:15:51;2.00;;;1.88;;
55292;SDS011;41157;53.560;10.098;2023-07-28T00:18:18;2.67;;;2.07;;
55292;SDS011;41157;53.560;10.098;2023-07-28T00:20:46;2.00;;;1.90;;
55292;SDS011;41157;53.560;10.098;2023-07-28T00:23:13;2.45;;;2.00;;
55292;SDS011;41157;53.560;10.098;2023-07-28T00:25:41;1.90;;;1.80;;
55292;SDS011;41157;53.560;10.098;2023-07-28T00:28:08;2.03;;;1.92;;
55292;SDS011;41157;53.560;10.098;2023-07-28T00:30:35;2.40;;;2.20;;
55292;SDS011;41157;53.560;10.098;2023-07-28T00:33:03;2.00;;;1.80;;
55292;SDS011;41157;53.560;10.098;2023-07-28T00:35:30;2.70;;;1.93;;
55292;SDS011;41157;53.560;10.098;2023-07-28T00:37:57;1.80;;;1.70;;
55292;SDS011;41157;53.560;10.098;2023-07-28T00:40:24;4.23;;;1.80;;
55292;SDS011;41157;53.560;10.098;2023-07-28T00:42:52;2.17;;;1.92;;
55292;SDS011;41157;53.560;10.098;2023-07-28T00:45:19;1.88;;;1.77;;
55292;SDS011;41157;53.560;10.098;2023-07-28T00:47:47;1.83;;;1.73;;
55292;SDS011;41157;53.560;10.098;2023-07-28T00:50:14;1.60;;;1.50;;
55292;SDS011;41157;53.560;10.098;2023-07-28T00:52:41;1.70;;;1.60;;
55292;SDS011;41157;53.560;10.098;2023-07-28T00:55:08;1.80;;;1.70;;
55292;SDS011;41157;53.560;10.098;2023-07-28T00:57:36;1.85;;;1.75;;
55292;SDS011;41157;53.560;10.098;2023-07-28T01:00:06;1.60;;;1.50;;
55292;SDS011;41157;53.560;10.098;2023-07-28T01:02:33;1.70;;;1.60;;
55292;SDS011;41157;53.560;10.098;2023-07-28T01:05:00;1.88;;;1.77;;
55292;SDS011;41157;53.560;10.098;2023-07-28T01:07:30;2.17;;;2.00;;
55292;SDS011;41157;53.560;10.098;2023-07-28T01:10:01;1.70;;;1.60;;
55292;SDS011;41157;53.560;10.098;2023-07-28T01:12:28;1.92;;;1.83;;
55292;SDS011;41157;53.560;10.098;2023-07-28T01:14:55;1.75;;;1.65;;
55292;SDS011;41157;53.560;10.098;2023-07-28T01:17:24;1.67;;;1.58;;
55292;SDS011;41157;53.560;10.098;2023-07-28T01:19:51;4.00;;;1.75;;
55292;SDS011;41157;53.560;10.098;2023-07-28T01:22:24;1.63;;;1.52;;
55292;SDS011;41157;53.560;10.098;2023-07-28T01:24:55;1.90;;;1.80;;
55292;SDS011;41157;53.560;10.098;2023-07-28T01:27:24;1.60;;;1.50;;
55292;SDS011;41157;53.560;10.098;2023-07-28T01:29:51;2.00;;;1.60;;
55292;SDS011;41157;53.560;10.098;2023-07-28T01:32:18;1.98;;;1.88;;
55292;SDS011;41157;53.560;10.098;2023-07-28T01:34:45;1.60;;;1.50;;
55292;SDS011;41157;53.560;10.098;2023-07-28T01:37:12;1.70;;;1.60;;
55292;SDS011;41157;53.560;10.098;2023-07-28T01:39:39;1.95;;;1.80;;
55292;SDS011;41157;53.560;10.098;2023-07-28T01:42:06;4.43;;;1.42;;
55292;SDS011;41157;53.560;10.098;2023-07-28T01:44:34;1.70;;;1.60;;
55292;SDS011;41157;53.560;10.098;2023-07-28T01:47:01;1.60;;;1.50;;
55292;SDS011;41157;53.560;10.098;2023-07-28T01:49:28;1.60;;;1.50;;
55292;SDS011;41157;53.560;10.098;2023-07-28T01:51:55;1.60;;;1.50;;
55292;SDS011;41157;53.560;10.098;2023-07-28T01:54:22;2.60;;;1.77;;
55292;SDS011;41157;53.560;10.098;2023-07-28T01:56:49;3.73;;;1.60;;
55292;SDS011;41157;53.560;10.098;2023-07-28T01:59:16;1.75;;;1.60;;
55292;SDS011;41157;53.560;10.098;2023-07-28T02:01:45;1.70;;;1.60;;
55292;SDS011;41157;53.560;10.098;2023-07-28T02:04:12;6.57;;;1.83;;
55292;SDS011;41157;53.560;10.098;2023-07-28T02:06:40;1.88;;;1.77;;
55292;SDS011;41157;53.560;10.098;2023-07-28T02:09:07;2.00;;;1.90;;
55292;SDS011;41157;53.560;10.098;2023-07-28T02:11:34;3.85;;;1.52;;
55292;SDS011;41157;53.560;10.098;2023-07-28T02:14:01;1.70;;;1.60;;
55292;SDS011;41157;53.560;10.098;2023-07-28T02:16:28;1.70;;;1.60;;
55292;SDS011;41157;53.560;10.098;2023-07-28T02:18:58;1.77;;;1.67;;
55292;SDS011;41157;53.560;10.098;2023-07-28T02:21:25;1.80;;;1.70;;
55292;SDS011;41157;53.560;10.098;2023-07-28T02:23:53;2.00;;;1.90;;
55292;SDS011;41157;53.560;10.098;2023-07-28T02:26:20;1.67;;;1.58;;
55292;SDS011;41157;53.560;10.098;2023-07-28T02:28:47;1.70;;;1.60;;
55292;SDS011;41157;53.560;10.098;2023-07-28T02:31:14;2.50;;;1.85;;
55292;SDS011;41157;53.560;10.098;2023-07-28T02:33:41;1.75;;;1.65;;
55292;SDS011;41157;53.560;10.098;2023-07-28T02:36:09;3.40;;;1.50;;
55292;SDS011;41157;53.560;10.098;2023-07-28T02:38:36;1.67;;;1.58;;
55292;SDS011;41157;53.560;10.098;2023-07-28T02:41:03;2.27;;;1.67;;
55292;SDS011;41157;53.560;10.098;2023-07-28T02:43:30;2.65;;;1.50;;
55292;SDS011;41157;53.560;10.098;2023-07-28T02:45:57;1.80;;;1.70;;
55292;SDS011;41157;53.560;10.098;2023-07-28T02:48:24;2.10;;;1.90;;
55292;SDS011;41157;53.560;10.098;2023-07-28T02:50:52;2.00;;;1.90;;
55292;SDS011;41157;53.560;10.098;2023-07-28T02:53:20;4.85;;;1.80;;
55292;SDS011;41157;53.560;10.098;2023-07-28T02:55:47;2.22;;;2.00;;
55292;SDS011;41157;53.560;10.098;2023-07-28T02:58:15;2.13;;;1.90;;
55292;SDS011;41157;53.560;10.098;2023-07-28T03:00:43;2.28;;;2.17;;
55292;SDS011;41157;53.560;10.098;2023-07-28T03:03:11;3.77;;;2.20;;
55292;SDS011;41157;53.560;10.098;2023-07-28T03:05:39;1.90;;;1.75;;
55292;SDS011;41157;53.560;10.098;2023-07-28T03:08:06;2.07;;;1.87;;
55292;SDS011;41157;53.560;10.098;2023-07-28T03:10:34;1.83;;;1.60;;
55292;SDS011;41157;53.560;10.098;2023-07-28T03:13:01;2.03;;;1.92;;
55292;SDS011;41157;53.560;10.098;2023-07-28T03:15:28;3.42;;;2.20;;
55292;SDS011;41157;53.560;10.098;2023-07-28T03:17:55;2.40;;;2.20;;
55292;SDS011;41157;53.560;10.098;2023-07-28T03:20:22;2.30;;;2.10;;
55292;SDS011;41157;53.560;10.098;2023-07-28T03:22:49;1.80;;;1.70;;
55292;SDS011;41157;53.560;10.098;2023-07-28T03:25:16;2.25;;;2.05;;
55292;SDS011;41157;53.560;10.098;2023-07-28T03:27:45;2.35;;;2.15;;
55292;SDS011;41157;53.560;10.098;2023-07-28T03:30:12;2.35;;;2.15;;
55292;SDS011;41157;53.560;10.098;2023-07-28T03:32:39;2.70;;;2.03;;
55292;SDS011;41157;53.560;10.098;2023-07-28T03:35:06;2.40;;;2.20;;
55292;SDS011;41157;53.560;10.098;2023-07-28T03:37:34;1.60;;;1.52;;
55292;SDS011;41157;53.560;10.098;2023-07-28T03:40:01;1.85;;;1.75;;
55292;SDS011;41157;53.560;10.098;2023-07-28T03:42:28;1.70;;;1.60;;
55292;SDS011;41157;53.560;10.098;2023-07-28T03:44:56;1.53;;;1.43;;
55292;SDS011;41157;53.560;10.098;2023-07-28T03:47:23;1.70;;;1.60;;
55292;SDS011;41157;53.560;10.098;2023-07-28T03:49:50;1.60;;;1.50;;
55292;SDS011;41157;53.560;10.098;2023-07-28T03:52:17;4.68;;;1.50;;
55292;SDS011;41157;53.560;10.098;2023-07-28T03:54:44;1.83;;;1.73;;
55292;SDS011;41157;53.560;10.098;2023-07-28T03:57:11;1.52;;;1.40;;
55292;SDS011;41157;53.560;10.098;2023-07-28T03:59:38;1.55;;;1.45;;
55292;SDS011;41157;53.560;10.098;2023-07-28T04:02:06;1.60;;;1.50;;
55292;SDS011;41157;53.560;10.098;2023-07-28T04:04:34;1.40;;;1.30;;
55292;SDS011;41157;53.560;10.098;2023-07-28T04:07:01;1.73;;;1.60;;
55292;SDS011;41157;53.560;10.098;2023-07-28T04:09:28;1.73;;;1.50;;
55292;SDS011;41157;53.560;10.098;2023-07-28T04:11:56;1.35;;;1.35;;
55292;SDS011;41157;53.560;10.098;2023-07-28T04:14:23;1.47;;;1.37;;
55292;SDS011;41157;53.560;10.098;2023-07-28T04:16:50;1.50;;;1.40;;
55292;SDS011;41157;53.560;10.098;2023-07-28T04:19:18;1.43;;;1.33;;
55292;SDS011;41157;53.560;10.098;2023-07-28T04:21:44;1.48;;;1.38;;
55292;SDS011;41157;53.560;10.098;2023-07-28T04:24:11;1.60;;;1.50;;
55292;SDS011;41157;53.560;10.098;2023-07-28T04:26:38;1.30;;;1.30;;
55292;SDS011;41157;53.560;10.098;2023-07-28T04:29:07;1.25;;;1.15;;
55292;SDS011;41157;53.560;10.098;2023-07-28T04:31:34;1.73;;;1.63;;
55292;SDS011;41157;53.560;10.098;2023-07-28T04:34:04;1.47;;;1.43;;
55292;SDS011;41157;53.560;10.098;2023-07-28T04:36:32;1.60;;;1.60;;
55292;SDS011;41157;53.560;10.098;2023-07-28T04:38:59;1.40;;;1.40;;
55292;SDS011;41157;53.560;10.098;2023-07-28T04:41:26;1.70;;;1.60;;
55292;SDS011;41157;53.560;10.098;2023-07-28T04:43:53;1.90;;;1.70;;
55292;SDS011;41157;53.560;10.098;2023-07-28T04:46:20;3.90;;;2.00;;
55292;SDS011;41157;53.560;10.098;2023-07-28T04:48:47;1.88;;;1.77;;
55292;SDS011;41157;53.560;10.098;2023-07-28T04:51:14;2.00;;;1.90;;
55292;SDS011;41157;53.560;10.098;2023-07-28T04:53:43;1.85;;;1.70;;
55292;SDS011;41157;53.560;10.098;2023-07-28T04:56:10;1.90;;;1.80;;
55292;SDS011;41157;53.560;10.098;2023-07-28T04:58:37;2.08;;;1.98;;
55292;SDS011;41157;53.560;10.098;2023-07-28T05:01:04;1.80;;;1.70;;
55292;SDS011;41157;53.560;10.098;2023-07-28T05:03:34;2.13;;;1.93;;
55292;SDS011;41157;53.560;10.098;2023-07-28T05:06:02;2.38;;;2.17;;
55292;SDS011;41157;53.560;10.098;2023-07-28T05:08:30;2.40;;;2.20;;
55292;SDS011;41157;53.560;10.098;2023-07-28T05:10:58;2.20;;;2.10;;
55292;SDS011;41157;53.560;10.098;2023-07-28T05:13:25;2.17;;;2.08;;
55292;SDS011;41157;53.560;10.098;2023-07-28T05:15:52;1.98;;;1.88;;
55292;SDS011;41157;53.560;10.098;2023-07-28T05:18:20;2.35;;;2.15;;
55292;SDS011;41157;53.560;10.098;2023-07-28T05:20:47;2.40;;;2.20;;
55292;SDS011;41157;53.560;10.098;2023-07-28T05:23:14;2.30;;;2.10;;
55292;SDS011;41157;53.560;10.098;2023-07-28T05:25:41;2.67;;;2.10;;
55292;SDS011;41157;53.560;10.098;2023-07-28T05:28:10;2.03;;;1.92;;
55292;SDS011;41157;53.560;10.098;2023-07-28T05:30:37;2.40;;;2.20;;
55292;SDS011;41157;53.560;10.098;2023-07-28T05:33:04;2.78;;;2.20;;
55292;SDS011;41157;53.560;10.098;2023-07-28T05:35:31;2.03;;;1.92;;
55292;SDS011;41157;53.560;10.098;2023-07-28T05:37:58;4.03;;;2.45;;
55292;SDS011;41157;53.560;10.098;2023-07-28T05:40:25;2.75;;;2.55;;
55292;SDS011;41157;53.560;10.098;2023-07-28T05:42:52;2.63;;;2.20;;
55292;SDS011;41157;53.560;10.098;2023-07-28T05:45:20;2.40;;;2.20;;
55292;SDS011;41157;53.560;10.098;2023-07-28T05:47:47;2.22;;;1.95;;
55292;SDS011;41157;53.560;10.098;2023-07-28T05:50:14;2.30;;;2.10;;
55292;SDS011;41157;53.560;10.098;2023-07-28T05:52:41;2.28;;;2.08;;
55292;SDS011;41157;53.560;10.098;2023-07-28T05:55:08;2.10;;;2.00;;
55292;SDS011;41157;53.560;10.098;2023-07-28T05:57:35;2.10;;;2.00;;
55292;SDS011;41157;53.560;10.098;2023-07-28T06:00:03;2.03;;;1.90;;
55292;SDS011;41157;53.560;10.098;2023-07-28T06:02:35;2.60;;;2.40;;
55292;SDS011;41157;53.560;10.098;2023-07-28T06:05:04;2.00;;;1.90;;
55292;SDS011;41157;53.560;10.098;2023-07-28T06:07:31;2.67;;;2.10;;
55292;SDS011;41157;53.560;10.098;2023-07-28T06:09:58;1.90;;;1.73;;
55292;SDS011;41157;53.560;10.098;2023-07-28T06:12:25;3.42;;;1.90;;
55292;SDS011;41157;53.560;10.098;2023-07-28T06:14:52;2.38;;;2.17;;
55292;SDS011;41157;53.560;10.098;2023-07-28T06:17:19;10.68;;;4.40;;
55292;SDS011;41157;53.560;10.098;2023-07-28T06:19:47;5.18;;;3.50;;
55292;SDS011;41157;53.560;10.098;2023-07-28T06:22:15;5.18;;;3.22;;
55292;SDS011;41157;53.560;10.098;2023-07-28T06:24:42;4.32;;;2.92;;
55292;SDS011;41157;53.560;10.098;2023-07-28T06:27:09;3.10;;;2.30;;
55292;SDS011;41157;53.560;10.098;2023-07-28T06:29:36;3.38;;;1.88;;
55292;SDS011;41157;53.560;10.098;2023-07-28T06:32:03;3.30;;;1.77;;
55292;SDS011;41157;53.560;10.098;2023-07-28T06:34:30;1.80;;;1.60;;
55292;SDS011;41157;53.560;10.098;2023-07-28T06:36:59;2.58;;;1.60;;
55292;SDS011;41157;53.560;10.098;2023-07-28T06:39:26;1.65;;;1.55;;
55292;SDS011;41157;53.560;10.098;2023-07-28T06:41:55;1.75;;;1.60;;
55292;SDS011;41157;53.560;10.098;2023-07-28T06:44:22;2.03;;;1.83;;
55292;SDS011;41157;53.560;10.098;2023-07-28T06:46:49;1.80;;;1.70;;
55292;SDS011;41157;53.560;10.098;2023-07-28T06:49:16;3.75;;;2.30;;
55292;SDS011;41157;53.560;10.098;2023-07-28T06:51:43;2.55;;;2.00;;
55292;SDS011;41157;53.560;10.098;2023-07-28T06:54:11;1.60;;;1.50;;
55292;SDS011;41157;53.560;10.098;2023-07-28T06:56:38;2.17;;;1.98;;
55292;SDS011;41157;53.560;10.098;2023-07-28T06:59:06;1.80;;;1.70;;
55292;SDS011;41157;53.560;10.098;2023-07-28T07:01:33;2.00;;;1.80;;
55292;SDS011;41157;53.560;10.098;2023-07-28T07:04:00;2.22;;;1.70;;
55292;SDS011;41157;53.560;10.098;2023-07-28T07:06:27;2.00;;;1.88;;
55292;SDS011;41157;53.560;10.098;2023-07-28T07:08:54;1.80;;;1.70;;
55292;SDS011;41157;53.560;10.098;2023-07-28T07:11:23;2.38;;;2.17;;
55292;SDS011;41157;53.560;10.098;2023-07-28T07:13:50;2.25;;;2.05;;
55292;SDS011;41157;53.560;10.098;2023-07-28T07:16:17;3.38;;;2.10;;
55292;SDS011;41157;53.560;10.098;2023-07-28T07:18:44;2.10;;;1.90;;
55292;SDS011;41157;53.560;10.098;2023-07-28T07:21:11;1.90;;;1.80;;
55292;SDS011;41157;53.560;10.098;2023-07-28T07:23:38;2.63;;;1.55;;
55292;SDS011;41157;53.560;10.098;2023-07-28T07:26:07;4.78;;;1.80;;
55292;SDS011;41157;53.560;10.098;2023-07-28T07:28:36;3.60;;;1.60;;
55292;SDS011;41157;53.560;10.098;2023-07-28T07:31:03;1.70;;;1.60;;
55292;SDS011;41157;53.560;10.098;2023-07-28T07:33:30;1.40;;;1.25;;
55292;SDS011;41157;53.560;10.098;2023-07-28T07:35:57;1.70;;;1.60;;
55292;SDS011;41157;53.560;10.098;2023-07-28T07:38:24;1.60;;;1.50;;
55292;SDS011;41157;53.560;10.098;2023-07-28T07:40:51;1.80;;;1.70;;
55292;SDS011;41157;53.560;10.098;2023-07-28T07:43:18;1.55;;;1.45;;
55292;SDS011;41157;53.560;10.098;2023-07-28T07:45:47;2.80;;;1.67;;
55292;SDS011;41157;53.560;10.098;2023-07-28T07:48:16;4.18;;;1.63;;
55292;SDS011;41157;53.560;10.098;2023-07-28T07:50:43;1.50;;;1.40;;
55292;SDS011;41157;53.560;10.098;2023-07-28T07:53:10;1.73;;;1.55;;
55292;SDS011;41157;53.560;10.098;2023-07-28T07:55:38;1.50;;;1.40;;
55292;SDS011;41157;53.560;10.098;2023-07-28T07:58:05;1.58;;;1.48;;
55292;SDS011;41157;53.560;10.098;2023-07-28T08:00:32;1.73;;;1.45;;
55292;SDS011;41157;53.560;10.098;2023-07-28T08:03:01;1.52;;;1.42;;
55292;SDS011;41157;53.560;10.098;2023-07-28T08:05:28;1.48;;;1.38;;
55292;SDS011;41157;53.560;10.098;2023-07-28T08:07:55;1.45;;;1.35;;
55292;SDS011;41157;53.560;10.098;2023-07-28T08:10:22;4.40;;;1.42;;
55292;SDS011;41157;53.560;10.098;2023-07-28T08:12:49;2.38;;;1.70;;
55292;SDS011;41157;53.560;10.098;2023-07-28T08:15:16;1.48;;;1.38;;
55292;SDS011;41157;53.560;10.098;2023-07-28T08:17:43;4.78;;;1.33;;
55292;SDS011;41157;53.560;10.098;2023-07-28T08:20:15;1.55;;;1.45;;
55292;SDS011;41157;53.560;10.098;2023-07-28T08:22:44;1.67;;;1.58;;
55292;SDS011;41157;53.560;10.098;2023-07-28T08:25:13;1.10;;;1.10;;
55292;SDS011;41157;53.560;10.098;2023-07-28T08:27:41;4.38;;;3.00;;
55292;SDS011;41157;53.560;10.098;2023-07-28T08:30:08;11.32;;;4.35;;
55292;SDS011;41157;53.560;10.098;2023-07-28T08:32:36;12.00;;;4.95;;
55292;SDS011;41157;53.560;10.098;2023-07-28T08:35:03;4.20;;;2.70;;
55292;SDS011;41157;53.560;10.098;2023-07-28T08:37:32;2.50;;;1.52;;
55292;SDS011;41157;53.560;10.098;2023-07-28T08:39:59;2.83;;;1.75;;
55292;SDS011;41157;53.560;10.098;2023-07-28T08:42:28;1.92;;;1.60;;
55292;SDS011;41157;53.560;10.098;2023-07-28T08:44:55;3.08;;;1.70;;
55292;SDS011;41157;53.560;10.098;2023-07-28T08:47:23;2.72;;;1.60;;
55292;SDS011;41157;53.560;10.098;2023-07-28T08:49:50;2.15;;;1.80;;
55292;SDS011;41157;53.560;10.098;2023-07-28T08:52:17;3.25;;;1.70;;
55292;SDS011;41157;53.560;10.098;2023-07-28T08:54:45;2.35;;;1.77;;
55292;SDS011;41157;53.560;10.098;2023-07-28T08:57:12;3.17;;;1.75;;
55292;SDS011;41157;53.560;10.098;2023-07-28T08:59:40;2.05;;;1.73;;
55292;SDS011;41157;53.560;10.098;2023-07-28T09:02:13;3.70;;;1.60;;
55292;SDS011;41157;53.560;10.098;2023-07-28T09:04:41;1.55;;;1.38;;
55292;SDS011;41157;53.560;10.098;2023-07-28T09:07:08;1.40;;;1.30;;
55292;SDS011;41157;53.560;10.098;2023-07-28T09:09:35;3.35;;;1.63;;
55292;SDS011;41157;53.560;10.098;2023-07-28T09:12:04;2.78;;;1.67;;
55292;SDS011;41157;53.560;10.098;2023-07-28T09:14:34;2.08;;;1.45;;
55292;SDS011;41157;53.560;10.098;2023-07-28T09:17:05;1.60;;;1.50;;
55292;SDS011;41157;53.560;10.098;2023-07-28T09:19:33;5.43;;;1.65;;
55292;SDS011;41157;53.560;10.098;2023-07-28T09:22:00;1.63;;;1.40;;
55292;SDS011;41157;53.560;10.098;2023-07-28T09:24:32;1.45;;;1.35;;
55292;SDS011;41157;53.560;10.098;2023-07-28T09:27:00;2.35;;;1.52;;
55292;SDS011;41157;53.560;10.098;2023-07-28T09:29:29;1.20;;;1.20;;
55292;SDS011;41157;53.560;10.098;2023-07-28T09:32:02;1.60;;;1.50;;
55292;SDS011;41157;53.560;10.098;2023-07-28T09:34:29;1.45;;;1.17;;
55292;SDS011;41157;53.560;10.098;2023-07-28T09:36:56;1.70;;;1.60;;
55292;SDS011;41157;53.560;10.098;2023-07-28T09:39:23;1.50;;;1.40;;
55292;SDS011;41157;53.560;10.098;2023-07-28T09:41:51;1.70;;;1.60;;
55292;SDS011;41157;53.560;10.098;2023-07-28T09:44:22;1.60;;;1.50;;
55292;SDS011;41157;53.560;10.098;2023-07-28T09:46:50;1.75;;;1.52;;
55292;SDS011;41157;53.560;10.098;2023-07-28T09:49:20;2.20;;;1.90;;
55292;SDS011;41157;53.560;10.098;2023-07-28T09:51:48;1.50;;;1.40;;
55292;SDS011;41157;53.560;10.098;2023-07-28T09:54:17;1.52;;;1.42;;
55292;SDS011;41157;53.560;10.098;2023-07-28T09:56:50;1.30;;;1.30;;
55292;SDS011;41157;53.560;10.098;2023-07-28T09:59:17;1.58;;;1.48;;
55292;SDS011;41157;53.560;10.098;2023-07-28T10:01:44;2.22;;;1.73;;
55292;SDS011;41157;53.560;10.098;2023-07-28T10:04:13;3.67;;;1.50;;
55292;SDS011;41157;53.560;10.098;2023-07-28T10:06:40;3.35;;;1.40;;
55292;SDS011;41157;53.560;10.098;2023-07-28T10:09:07;4.80;;;1.67;;
55292;SDS011;41157;53.560;10.098;2023-07-28T10:11:36;1.60;;;1.42;;
55292;SDS011;41157;53.560;10.098;2023-07-28T10:14:04;1.50;;;1.40;;
55292;SDS011;41157;53.560;10.098;2023-07-28T10:16:37;1.60;;;1.42;;
55292;SDS011;41157;53.560;10.098;2023-07-28T10:19:04;3.78;;;1.42;;
55292;SDS011;41157;53.560;10.098;2023-07-28T10:21:37;2.00;;;1.42;;
55292;SDS011;41157;53.560;10.098;2023-07-28T10:24:06;3.20;;;1.63;;
55292;SDS011;41157;53.560;10.098;2023-07-28T10:26:38;1.63;;;1.45;;
55292;SDS011;41157;53.560;10.098;2023-07-28T10:29:09;1.38;;;1.38;;
55292;SDS011;41157;53.560;10.098;2023-07-28T10:31:36;1.83;;;1.52;;
55292;SDS011;41157;53.560;10.098;2023-07-28T10:34:04;1.77;;;1.67;;
55292;SDS011;41157;53.560;10.098;2023-07-28T10:36:35;1.70;;;1.60;;
55292;SDS011;41157;53.560;10.098;2023-07-28T10:39:12;1.50;;;1.40;;
55292;SDS011;41157;53.560;10.098;2023-07-28T10:41:40;1.50;;;1.38;;
55292;SDS011;41157;53.560;10.098;2023-07-28T10:44:08;1.50;;;1.40;;
55292;SDS011;41157;53.560;10.098;2023-07-28T10:46:35;2.25;;;1.27;;
55292;SDS011;41157;53.560;10.098;2023-07-28T10:49:04;1.67;;;1.58;;
55292;SDS011;41157;53.560;10.098;2023-07-28T10:51:32;1.50;;;1.40;;
55292;SDS011;41157;53.560;10.098;2023-07-28T10:54:01;1.60;;;1.50;;
55292;SDS011;41157;53.560;10.098;2023-07-28T10:56:28;1.42;;;1.35;;
55292;SDS011;41157;53.560;10.098;2023-07-28T10:58:56;1.55;;;1.45;;
55292;SDS011;41157;53.560;10.098;2023-07-28T11:01:24;1.73;;;1.50;;
55292;SDS011;41157;53.560;10.098;2023-07-28T11:03:51;4.05;;;1.60;;
55292;SDS011;41157;53.560;10.098;2023-07-28T11:06:18;1.60;;;1.45;;
55292;SDS011;41157;53.560;10.098;2023-07-28T11:08:46;1.65;;;1.55;;
55292;SDS011;41157;53.560;10.098;2023-07-28T11:11:14;1.50;;;1.40;;
55292;SDS011;41157;53.560;10.098;2023-07-28T11:13:41;2.20;;;1.52;;
55292;SDS011;41157;53.560;10.098;2023-07-28T11:16:08;1.60;;;1.50;;
55292;SDS011;41157;53.560;10.098;2023-07-28T11:18:37;1.40;;;1.30;;
55292;SDS011;41157;53.560;10.098;2023-07-28T11:21:04;1.60;;;1.50;;
55292;SDS011;41157;53.560;10.098;2023-07-28T11:23:31;1.30;;;1.20;;
55292;SDS011;41157;53.560;10.098;2023-07-28T11:25:58;1.52;;;1.42;;
55292;SDS011;41157;53.560;10.098;2023-07-28T11:28:27;1.15;;;1.13;;
55292;SDS011;41157;53.560;10.098;2023-07-28T11:30:54;1.30;;;1.23;;
55292;SDS011;41157;53.560;10.098;2023-07-28T11:33:22;1.45;;;1.35;;
55292;SDS011;41157;53.560;10.098;2023-07-28T11:35:49;1.40;;;1.30;;
55292;SDS011;41157;53.560;10.098;2023-07-28T11:38:16;1.15;;;1.15;;
55292;SDS011;41157;53.560;10.098;2023-07-28T11:40:43;2.53;;;1.23;;
55292;SDS011;41157;53.560;10.098;2023-07-28T11:43:11;1.40;;;1.30;;
55292;SDS011;41157;53.560;10.098;2023-07-28T11:45:39;0.90;;;0.90;;
55292;SDS011;41157;53.560;10.098;2023-07-28T11:48:06;1.13;;;1.13;;
55292;SDS011;41157;53.560;10.098;2023-07-28T11:50:34;1.20;;;1.20;;
55292;SDS011;41157;53.560;10.098;2023-07-28T11:53:02;1.10;;;1.10;;
55292;SDS011;41157;53.560;10.098;2023-07-28T11:55:29;1.00;;;1.00;;
55292;SDS011;41157;53.560;10.098;2023-07-28T11:57:56;1.08;;;1.05;;
55292;SDS011;41157;53.560;10.098;2023-07-28T12:00:29;1.40;;;1.30;;
55292;SDS011;41157;53.560;10.098;2023-07-28T12:03:07;1.13;;;1.00;;
55292;SDS011;41157;53.560;10.098;2023-07-28T12:05:35;1.25;;;1.25;;
55292;SDS011;41157;53.560;10.098;2023-07-28T12:08:03;1.02;;;1.00;;
55292;SDS011;41157;53.560;10.098;2023-07-28T12:10:30;1.27;;;1.17;;
55292;SDS011;41157;53.560;10.098;2023-07-28T12:12:57;1.55;;;1.17;;
55292;SDS011;41157;53.560;10.098;2023-07-28T12:15:30;1.33;;;1.10;;
55292;SDS011;41157;53.560;10.098;2023-07-28T12:18:11;1.17;;;1.10;;
55292;SDS011;41157;53.560;10.098;2023-07-28T12:20:39;1.10;;;1.10;;
55292;SDS011;41157;53.560;10.098;2023-07-28T12:23:06;3.45;;;1.13;;
55292;SDS011;41157;53.560;10.098;2023-07-28T12:25:34;1.73;;;1.13;;
55292;SDS011;41157;53.560;10.098;2023-07-28T12:28:02;1.30;;;1.20;;
55292;SDS011;41157;53.560;10.098;2023-07-28T12:30:29;0.90;;;0.90;;
55292;SDS011;41157;53.560;10.098;2023-07-28T12:32:56;1.20;;;1.10;;
55292;SDS011;41157;53.560;10.098;2023-07-28T12:35:25;1.05;;;1.05;;
55292;SDS011;41157;53.560;10.098;2023-07-28T12:37:55;1.00;;;1.00;;
55292;SDS011;41157;53.560;10.098;2023-07-28T12:40:24;1.25;;;1.00;;
55292;SDS011;41157;53.560;10.098;2023-07-28T12:42:52;0.80;;;0.80;;
55292;SDS011;41157;53.560;10.098;2023-07-28T12:45:19;0.98;;;0.98;;
55292;SDS011;41157;53.560;10.098;2023-07-28T12:47:47;1.00;;;1.00;;
55292;SDS011;41157;53.560;10.098;2023-07-28T12:50:14;1.40;;;1.08;;
55292;SDS011;41157;53.560;10.098;2023-07-28T12:52:42;1.20;;;1.10;;
55292;SDS011;41157;53.560;10.098;2023-07-28T12:55:09;1.33;;;1.20;;
55292;SDS011;41157;53.560;10.098;2023-07-28T12:57:36;1.23;;;1.20;;
55292;SDS011;41157;53.560;10.098;2023-07-28T13:00:04;2.92;;;1.08;;
55292;SDS011;41157;53.560;10.098;2023-07-28T13:02:37;0.95;;;0.90;;
55292;SDS011;41157;53.560;10.098;2023-07-28T13:05:05;1.20;;;1.13;;
55292;SDS011;41157;53.560;10.098;2023-07-28T13:07:32;0.80;;;0.80;;
55292;SDS011;41157;53.560;10.098;2023-07-28T13:10:00;1.20;;;1.20;;
55292;SDS011;41157;53.560;10.098;2023-07-28T13:12:28;0.90;;;0.90;;
55292;SDS011;41157;53.560;10.098;2023-07-28T13:14:55;3.60;;;1.20;;
55292;SDS011;41157;53.560;10.098;2023-07-28T13:17:22;0.90;;;0.90;;
55292;SDS011;41157;53.560;10.098;2023-07-28T13:19:49;0.82;;;0.82;;
55292;SDS011;41157;53.560;10.098;2023-07-28T13:22:16;1.20;;;1.00;;
55292;SDS011;41157;53.560;10.098;2023-07-28T13:24:43;1.55;;;0.90;;
55292;SDS011;41157;53.560;10.098;2023-07-28T13:27:12;0.90;;;0.90;;
55292;SDS011;41157;53.560;10.098;2023-07-28T13:29:39;1.45;;;1.10;;
55292;SDS011;41157;53.560;10.098;2023-07-28T13:32:15;0.90;;;0.90;;
55292;SDS011;41157;53.560;10.098;2023-07-28T13:34:42;0.95;;;0.95;;
55292;SDS011;41157;53.560;10.098;2023-07-28T13:37:10;0.93;;;0.93;;
55292;SDS011;41157;53.560;10.098;2023-07-28T13:39:37;1.17;;;1.17;;
55292;SDS011;41157;53.560;10.098;2023-07-28T13:42:04;1.00;;;1.00;;
55292;SDS011;41157;53.560;10.098;2023-07-28T13:44:32;1.02;;;1.02;;
55292;SDS011;41157;53.560;10.098;2023-07-28T13:46:59;1.00;;;1.00;;
55292;SDS011;41157;53.560;10.098;2023-07-28T13:49:26;1.05;;;1.02;;
55292;SDS011;41157;53.560;10.098;2023-07-28T13:51:53;0.90;;;0.90;;
55292;SDS011;41157;53.560;10.098;2023-07-28T13:54:20;1.80;;;1.20;;
55292;SDS011;41157;53.560;10.098;2023-07-28T13:56:47;3.47;;;1.00;;
55292;SDS011;41157;53.560;10.098;2023-07-28T13:59:14;1.20;;;1.13;;
55292;SDS011;41157;53.560;10.098;2023-07-28T14:01:43;1.40;;;1.10;;
55292;SDS011;41157;53.560;10.098;2023-07-28T14:04:10;1.70;;;0.95;;
55292;SDS011;41157;53.560;10.098;2023-07-28T14:06:37;5.13;;;1.38;;
55292;SDS011;41157;53.560;10.098;2023-07-28T14:09:04;1.00;;;1.00;;
55292;SDS011;41157;53.560;10.098;2023-07-28T14:11:31;1.13;;;1.13;;
55292;SDS011;41157;53.560;10.098;2023-07-28T14:13:58;1.13;;;1.02;;
55292;SDS011;41157;53.560;10.098;2023-07-28T14:16:26;1.20;;;1.10;;
55292;SDS011;41157;53.560;10.098;2023-07-28T14:18:54;0.90;;;0.90;;
55292;SDS011;41157;53.560;10.098;2023-07-28T14:21:21;0.90;;;0.90;;
55292;SDS011;41157;53.560;10.098;2023-07-28T14:23:48;1.77;;;1.00;;
55292;SDS011;41157;53.560;10.098;2023-07-28T14:26:14;1.00;;;1.00;;
55292;SDS011;41157;53.560;10.098;2023-07-28T14:28:42;1.10;;;1.10;;
55292;SDS011;41157;53.560;10.098;2023-07-28T14:31:09;1.33;;;1.23;;
55292;SDS011;41157;53.560;10.098;2023-07-28T14:33:36;1.88;;;1.08;;
55292;SDS011;41157;53.560;10.098;2023-07-28T14:36:05;1.00;;;1.00;;